Time;durP1;ratioP1;P1;durP2;ratioP2;P2;SDS_P1;SDS_P2;PMS_P1;PMS_P2;Temp;Humidity;BMP_temperature;BMP_pressure;BME280_temperature;BME280_humidity;BME280_pressure;Samples;Min_cycle;Max_cycle;Signal;HPM_P1;HPM_P2
2021/12/09 00:01:10;;;;;;;52.85;23.23;;;;;;;-0.47;100.00;97113.00;12763177;23;20013;-77
2021/12/09 00:06:12;;;;;;;46.47;23.27;;;;;;;-0.41;100.00;97159.34;12705309;23;20016;-74
2021/12/09 00:11:12;;;;;;;47.35;22.30;;;;;;;-0.46;100.00;97162.03;12730235;23;20029;-74
2021/12/09 00:16:13;;;;;;;43.65;20.42;;;;;;;-0.50;100.00;97153.13;12732314;23;20036;-78
2021/12/09 00:21:15;;;;;;;48.45;22.02;;;;;;;-0.50;100.00;97150.47;12706204;23;20017;-78
2021/12/09 00:26:15;;;;;;;47.38;21.67;;;;;;;-0.53;100.00;97161.59;12730687;23;20021;-74
2021/12/09 00:31:17;;;;;;;43.97;20.80;;;;;;;-0.40;100.00;97166.97;12739508;23;20001;-78
2021/12/09 00:36:27;;;;;;;41.72;20.70;;;;;;;-0.37;100.00;97170.91;12704463;23;20782;-76
2021/12/09 00:41:29;;;;;;;43.20;20.05;;;;;;;-0.30;100.00;97166.88;12701011;23;20315;-77
2021/12/09 00:46:30;;;;;;;48.35;21.88;;;;;;;-0.25;100.00;97155.50;12700328;23;20013;-77
2021/12/09 00:51:31;;;;;;;42.72;20.92;;;;;;;-0.32;100.00;97140.00;12727322;23;20022;-75
2021/12/09 00:56:32;;;;;;;44.63;21.58;;;;;;;-0.24;100.00;97133.34;12699825;23;20053;-76
2021/12/09 01:01:32;;;;;;;44.72;20.40;;;;;;;-0.46;100.00;97118.00;12726560;23;20456;-77
2021/12/09 01:06:33;;;;;;;41.28;18.92;;;;;;;-0.35;100.00;97135.31;12726469;23;20096;-77
2021/12/09 01:11:33;;;;;;;43.20;20.15;;;;;;;-0.43;100.00;97146.47;12699837;23;20017;-76
2021/12/09 01:16:34;;;;;;;42.75;18.17;;;;;;;-0.44;100.00;97165.97;12725751;23;20667;-77
2021/12/09 01:21:34;;;;;;;41.15;18.35;;;;;;;-0.45;100.00;97169.69;12726173;23;20014;-78
2021/12/09 01:26:35;;;;;;;39.75;19.23;;;;;;;-0.47;100.00;97168.38;12728340;23;20352;-77
2021/12/09 01:31:38;;;;;;;40.95;19.88;;;;;;;-0.51;100.00;97168.16;12702079;23;20104;-76
2021/12/09 01:36:39;;;;;;;40.40;18.40;;;;;;;-0.53;100.00;97182.66;12704189;23;20021;-77
2021/12/09 01:41:42;;;;;;;42.65;18.02;;;;;;;-0.50;100.00;97187.38;12704014;23;20010;-78
2021/12/09 01:46:43;;;;;;;35.45;16.05;;;;;;;-0.47;100.00;97186.81;12701407;23;20017;-78
2021/12/09 01:51:45;;;;;;;41.47;17.52;;;;;;;-0.44;100.00;97208.16;12699718;23;20022;-77
2021/12/09 01:56:45;;;;;;;36.22;16.95;;;;;;;-0.44;100.00;97210.00;12725765;23;20080;-76
2021/12/09 02:01:46;;;;;;;39.85;16.90;;;;;;;-0.42;100.00;97218.41;12698635;23;20020;-75
2021/12/09 02:06:46;;;;;;;35.97;17.00;;;;;;;-0.39;100.00;97215.22;12698661;23;20037;-75
2021/12/09 02:11:47;;;;;;;36.67;17.80;;;;;;;-0.40;100.00;97195.19;12727671;23;20399;-77
2021/12/09 02:16:48;;;;;;;31.85;16.05;;;;;;;-0.46;100.00;97189.16;12715665;23;20071;-76
2021/12/09 02:21:48;;;;;;;33.60;16.52;;;;;;;-0.43;100.00;97193.13;12769097;23;20072;-77
2021/12/09 02:26:49;;;;;;;39.38;18.80;;;;;;;-0.23;100.00;97208.72;12775292;23;20020;-76
2021/12/09 02:31:56;;;;;;;41.90;19.40;;;;;;;-0.26;100.00;97208.50;12736497;23;20023;-76
2021/12/09 02:36:56;;;;;;;37.22;16.60;;;;;;;-0.31;100.00;97188.25;12706765;23;20013;-77
2021/12/09 02:41:58;;;;;;;34.70;16.10;;;;;;;-0.33;100.00;97187.75;12706962;23;20014;-77
2021/12/09 02:47:01;;;;;;;43.40;18.88;;;;;;;-0.40;100.00;97190.69;12706196;23;20029;-75
2021/12/09 02:52:04;;;;;;;34.90;16.05;;;;;;;-0.32;100.00;97194.59;12707179;23;20061;-76
2021/12/09 02:57:07;;;;;;;41.65;18.52;;;;;;;-0.29;100.00;97202.72;12733081;23;20014;-77
2021/12/09 03:02:09;;;;;;;;;;;;;;;-0.28;100.00;97217.47;12706123;23;20014;-78
2021/12/09 03:07:27;;;;;;;38.78;16.23;;;;;;;-0.22;100.00;97215.56;12707551;23;19920;-77
2021/12/09 03:12:34;;;;;;;38.35;18.77;;;;;;;-0.26;100.00;97216.41;12695109;23;20030;-76
2021/12/09 03:17:37;;;;;;;43.22;19.35;;;;;;;-0.29;100.00;97207.97;12708083;23;20021;-76
2021/12/09 03:22:38;;;;;;;;;;;;;;;-0.38;100.00;97201.75;12706743;23;20025;-76
2021/12/09 03:27:39;;;;;;;29.70;14.68;;;;;;;-0.34;100.00;97202.78;12734426;23;19939;-76
2021/12/09 03:32:40;;;;;;;38.67;17.73;;;;;;;-0.25;100.00;97204.81;12731609;23;20424;-76
2021/12/09 03:37:42;;;;;;;38.92;17.83;;;;;;;-0.25;100.00;97223.25;12701684;23;20017;-77
2021/12/09 03:42:45;;;;;;;37.67;17.77;;;;;;;-0.29;100.00;97234.34;12728739;23;20036;-80
2021/12/09 03:47:46;;;;;;;33.50;15.63;;;;;;;-0.26;100.00;97217.22;12729404;23;20013;-77
2021/12/09 03:52:46;;;;;;;31.45;16.08;;;;;;;-0.22;100.00;97222.69;12705758;23;20018;-77
2021/12/09 03:57:47;;;;;;;38.25;16.80;;;;;;;-0.33;100.00;97217.53;12729310;23;20127;-76
2021/12/09 04:02:47;;;;;;;33.90;16.23;;;;;;;-0.24;100.00;97201.88;12731940;23;20100;-76
2021/12/09 04:07:48;;;;;;;33.88;14.48;;;;;;;-0.19;100.00;97195.75;12746944;23;20005;-77
2021/12/09 04:12:48;;;;;;;38.83;17.25;;;;;;;-0.21;100.00;97205.81;12743822;23;20073;-77
2021/12/09 04:17:49;;;;;;;36.97;16.75;;;;;;;-0.21;100.00;97203.97;12720377;23;20037;-77
2021/12/09 04:22:53;;;;;;;31.35;15.32;;;;;;;-0.25;100.00;97210.88;12729327;23;20068;-77
2021/12/09 04:27:55;;;;;;;35.70;16.13;;;;;;;-0.24;100.00;97228.25;12736203;23;20017;-78
2021/12/09 04:32:55;;;;;;;36.30;17.02;;;;;;;-0.26;100.00;97230.38;12748893;23;20024;-78
2021/12/09 04:37:56;;;;;;;34.53;17.05;;;;;;;-0.37;100.00;97234.16;12713884;23;20028;-77
2021/12/09 04:42:57;;;;;;;29.73;15.02;;;;;;;-0.34;100.00;97252.88;12704561;23;20020;-77
2021/12/09 04:47:57;;;;;;;37.85;18.13;;;;;;;-0.47;100.00;97258.75;12728445;23;20028;-78
2021/12/09 04:52:58;;;;;;;36.25;17.77;;;;;;;-0.45;100.00;97261.94;12680536;23;20021;-77
2021/12/09 04:57:59;;;;;;;45.25;18.52;;;;;;;-0.43;100.00;97264.28;12729522;23;20362;-77
2021/12/09 05:03:06;;;;;;;42.25;19.40;;;;;;;-0.47;100.00;97279.84;12729099;23;20068;-77
2021/12/09 05:08:09;;;;;;;38.70;18.95;;;;;;;-0.45;100.00;97285.66;12703422;23;20139;-77
2021/12/09 05:13:12;;;;;;;32.45;14.70;;;;;;;-0.44;100.00;97286.44;12735385;23;20021;-77
2021/12/09 05:18:15;;;;;;;43.83;19.67;;;;;;;-0.47;100.00;97290.38;12706999;23;20512;-77
2021/12/09 05:23:18;;;;;;;39.17;17.98;;;;;;;-0.48;100.00;97290.66;12701767;23;20469;-76
2021/12/09 05:28:19;;;;;;;34.83;16.50;;;;;;;-0.43;100.00;97269.56;12702353;23;20064;-76
2021/12/09 05:33:19;;;;;;;37.88;17.30;;;;;;;-0.33;100.00;97282.66;12741716;23;20378;-77
2021/12/09 05:38:20;;;;;;;42.97;18.10;;;;;;;-0.35;100.00;97300.59;12707858;23;20128;-77
2021/12/09 05:43:21;;;;;;;39.95;17.65;;;;;;;-0.45;100.00;97303.31;12705225;23;20076;-78
2021/12/09 05:48:22;;;;;;;37.00;17.25;;;;;;;-0.49;100.00;97312.81;12708129;23;20511;-78
2021/12/09 05:53:23;;;;;;;40.28;16.98;;;;;;;-0.45;100.00;97309.38;12730296;23;20026;-77
2021/12/09 05:58:24;;;;;;;43.03;17.48;;;;;;;-0.40;100.00;97295.34;12702740;23;20691;-78
2021/12/09 06:03:27;;;;;;;44.20;18.55;;;;;;;-0.30;100.00;97303.16;12729635;23;20077;-79
2021/12/09 06:08:27;;;;;;;47.88;19.98;;;;;;;-0.31;100.00;97293.69;12680633;23;20025;-79
2021/12/09 06:13:30;;;;;;;36.85;16.25;;;;;;;-0.29;100.00;97291.56;12739020;23;20017;-78
2021/12/09 06:18:36;;;;;;;36.92;17.65;;;;;;;-0.16;100.00;97290.16;12709006;23;20041;-78
2021/12/09 06:23:39;;;;;;;35.90;15.93;;;;;;;-0.10;100.00;97292.44;12683353;23;20018;-77
2021/12/09 06:28:41;;;;;;;44.80;18.67;;;;;;;-0.09;100.00;97274.78;12734504;23;20131;-78
2021/12/09 06:33:41;;;;;;;34.70;16.85;;;;;;;-0.10;100.00;97284.53;12730322;23;20029;-78
2021/12/09 06:38:42;;;;;;;33.95;17.88;;;;;;;-0.10;100.00;97296.94;12709819;23;20048;-80
2021/12/09 06:43:43;;;;;;;50.63;26.10;;;;;;;-0.12;100.00;97296.44;12735582;23;20017;-79
2021/12/09 06:48:44;;;;;;;43.28;18.60;;;;;;;-0.16;100.00;97305.97;12748531;23;20038;-80
2021/12/09 06:53:44;;;;;;;35.00;16.35;;;;;;;-0.29;100.00;97323.97;12774996;23;20041;-78
2021/12/09 06:58:45;;;;;;;36.35;15.55;;;;;;;-0.29;100.00;97339.00;12742835;23;20014;-78
2021/12/09 07:03:46;;;;;;;45.45;18.52;;;;;;;-0.18;100.00;97343.19;12702025;23;20024;-77
2021/12/09 07:08:48;;;;;;;41.42;17.60;;;;;;;-0.29;100.00;97363.53;12702408;23;20085;-77
2021/12/09 07:13:54;;;;;;;40.03;17.17;;;;;;;-0.19;100.00;97367.16;12727899;23;20021;-79
2021/12/09 07:18:55;;;;;;;36.40;16.35;;;;;;;-0.17;100.00;97372.97;12655533;23;20369;-78
2021/12/09 07:23:56;;;;;;;41.55;16.73;;;;;;;-0.18;100.00;97390.63;12729921;23;20028;-78
2021/12/09 07:28:56;;;;;;;44.58;17.52;;;;;;;-0.16;100.00;97393.78;12729479;23;20021;-77
2021/12/09 07:33:57;;;;;;;41.83;17.75;;;;;;;-0.02;100.00;97396.56;12704336;23;20104;-77
2021/12/09 07:38:58;;;;;;;39.20;17.58;;;;;;;-0.22;100.00;97386.16;12704190;23;20021;-77
2021/12/09 07:44:02;;;;;;;41.15;18.30;;;;;;;-0.07;100.00;97389.50;12704581;23;20021;-77
2021/12/09 07:49:03;;;;;;;35.63;15.80;;;;;;;-0.05;100.00;97387.34;12732339;23;20431;-78
2021/12/09 07:54:04;;;;;;;36.60;15.65;;;;;;;0.03;100.00;97391.25;12738358;23;20024;-81
2021/12/09 07:59:05;;;;;;;35.63;16.33;;;;;;;0.09;100.00;97402.53;12682320;23;20104;-77
2021/12/09 08:04:07;;;;;;;29.08;14.57;;;;;;;0.17;100.00;97401.94;12703158;23;20033;-78
2021/12/09 08:09:10;;;;;;;29.38;13.55;;;;;;;0.20;100.00;97394.28;12730732;23;20104;-78
2021/12/09 08:14:15;;;;;;;36.70;16.17;;;;;;;0.35;100.00;97389.91;12679876;23;20428;-80
2021/12/09 08:19:17;;;;;;;44.33;19.30;;;;;;;0.55;100.00;97377.34;12727468;23;20437;-77
2021/12/09 08:24:18;;;;;;;47.10;19.23;;;;;;;0.65;100.00;97384.34;12678418;23;20022;-76
2021/12/09 08:29:18;;;;;;;41.75;17.85;;;;;;;0.68;100.00;97394.34;12706763;23;20017;-77
2021/12/09 08:34:20;;;;;;;39.42;16.80;;;;;;;0.67;100.00;97399.91;12679738;23;20017;-77
2021/12/09 08:39:21;;;;;;;35.55;16.52;;;;;;;0.84;100.00;97392.34;12735495;23;20086;-77
2021/12/09 08:44:23;;;;;;;44.25;18.20;;;;;;;0.93;100.00;97393.28;12699885;23;20028;-79
2021/12/09 08:49:24;;;;;;;50.00;21.33;;;;;;;0.96;100.00;97400.66;12786630;23;20021;-77
2021/12/09 08:54:25;;;;;;;40.40;16.60;;;;;;;1.08;100.00;97392.31;12745863;23;20033;-76
2021/12/09 08:59:26;;;;;;;42.08;19.02;;;;;;;1.22;100.00;97395.06;12733987;23;20411;-77
2021/12/09 09:04:27;;;;;;;38.33;16.42;;;;;;;1.31;100.00;97393.34;12728827;23;20082;-76
2021/12/09 09:09:33;;;;;;;38.40;16.80;;;;;;;1.51;100.00;97394.94;12709382;23;20024;-77
2021/12/09 09:14:34;;;;;;;40.38;16.02;;;;;;;1.50;100.00;97388.09;12718666;23;20021;-77
2021/12/09 09:19:36;;;;;;;39.83;17.67;;;;;;;1.62;100.00;97393.72;12709163;23;20061;-77
2021/12/09 09:24:36;;;;;;;38.30;16.00;;;;;;;1.64;100.00;97395.00;12697787;23;20116;-77
2021/12/09 09:29:39;;;;;;;37.72;16.58;;;;;;;1.71;100.00;97394.66;12702508;23;20014;-77
2021/12/09 09:34:39;;;;;;;40.65;18.05;;;;;;;1.65;100.00;97401.09;12699492;23;20022;-76
2021/12/09 09:39:42;;;;;;;44.35;17.75;;;;;;;1.80;100.00;97414.09;12724926;23;20021;-77
2021/12/09 09:44:54;;;;;;;37.22;17.58;;;;;;;1.90;100.00;97421.88;12726295;23;20113;-78
2021/12/09 09:49:56;;;;;;;40.30;17.90;;;;;;;1.79;100.00;97422.31;12726384;23;20116;-76
2021/12/09 09:54:59;;;;;;;41.20;18.58;;;;;;;1.74;100.00;97409.97;12725543;23;20041;-78
2021/12/09 09:59:59;;;;;;;41.60;17.13;;;;;;;1.72;100.00;97420.03;12727123;23;20370;-78
2021/12/09 10:05:02;;;;;;;37.95;17.67;;;;;;;1.85;100.00;97437.06;12699282;23;20041;-77
2021/12/09 10:10:05;;;;;;;41.65;18.75;;;;;;;1.71;100.00;97444.91;12673114;23;20018;-77
2021/12/09 10:15:05;;;;;;;40.22;18.45;;;;;;;1.65;100.00;97461.94;12729385;23;20020;-78
2021/12/09 10:20:07;;;;;;;37.08;18.10;;;;;;;1.58;100.00;97459.63;12697992;23;20040;-77
2021/12/09 10:25:19;;;;;;;39.00;18.40;;;;;;;1.51;100.00;97461.03;12724946;23;20017;-77
2021/12/09 10:30:22;;;;;;;45.35;21.00;;;;;;;1.71;100.00;97458.13;12728338;23;20013;-80
2021/12/09 10:35:22;;;;;;;39.33;18.13;;;;;;;1.88;100.00;97458.44;12673286;23;20132;-78
2021/12/09 10:40:26;;;;;;;34.33;18.02;;;;;;;1.88;100.00;97450.50;12726591;23;20669;-77
2021/12/09 10:45:31;;;;;;;46.63;19.83;;;;;;;2.04;100.00;97448.41;12701334;23;20017;-78
2021/12/09 10:50:40;;;;;;;34.40;17.02;;;;;;;1.91;100.00;97428.75;12729415;23;20049;-77
2021/12/09 10:55:41;;;;;;;33.50;16.45;;;;;;;2.16;100.00;97426.78;12704289;23;20052;-77
2021/12/09 11:00:55;;;;;;;34.45;17.35;;;;;;;2.17;100.00;97431.00;12678546;23;20013;-77
2021/12/09 11:05:58;;;;;;;31.35;15.65;;;;;;;2.36;100.00;97436.25;12702788;23;20032;-77
2021/12/09 11:11:10;;;;;;;28.05;15.35;;;;;;;2.42;100.00;97427.94;12729358;23;20021;-77
2021/12/09 11:16:14;;;;;;;29.77;15.40;;;;;;;2.44;100.00;97425.78;12703807;23;20101;-77
2021/12/09 11:21:17;;;;;;;25.13;13.95;;;;;;;2.55;100.00;97429.03;12728534;23;20414;-78
2021/12/09 11:26:55;;;;;;;27.42;14.88;;;;;;;2.71;100.00;97421.63;12711930;23;20028;-79
2021/12/09 11:32:22;;;;;;;22.80;14.02;;;;;;;2.58;100.00;97427.69;12711059;23;20129;-76
2021/12/09 11:42:36;;;;;;;21.85;13.20;;;;;;;2.53;100.00;97426.69;12711254;23;20033;-77
2021/12/09 11:47:38;;;;;;;22.00;13.30;;;;;;;2.59;100.00;97424.75;12728172;23;20036;-78
2021/12/09 11:52:43;;;;;;;20.42;12.30;;;;;;;2.66;100.00;97419.09;12731947;23;20314;-78
2021/12/09 11:57:49;;;;;;;22.08;12.82;;;;;;;2.59;100.00;97406.22;12674347;23;20017;-77
2021/12/09 12:19:35;;;;;;;26.33;12.65;;;;;;;2.66;100.00;97417.22;12716084;23;20025;-78
2021/12/09 12:41:04;;;;;;;22.15;12.13;;;;;;;2.66;100.00;97419.09;12778997;23;20017;-77
2021/12/09 12:46:25;;;;;;;21.48;12.05;;;;;;;2.65;100.00;97425.44;12741081;23;20430;-78
2021/12/09 12:51:33;;;;;;;19.40;11.40;;;;;;;2.63;100.00;97435.53;12745641;23;20013;-76
2021/12/09 12:56:45;;;;;;;22.25;12.60;;;;;;;2.60;100.00;97422.88;12740133;23;20017;-78
2021/12/09 13:02:13;;;;;;;21.40;12.00;;;;;;;2.60;100.00;97428.97;12706781;23;20027;-76
2021/12/09 13:08:06;;;;;;;22.60;11.50;;;;;;;2.53;100.00;97432.00;12711164;23;20676;-78
2021/12/09 13:13:19;;;;;;;19.13;11.05;;;;;;;2.50;100.00;97431.81;12750141;23;20017;-81
2021/12/09 13:18:44;;;;;;;24.33;13.43;;;;;;;2.45;100.00;97435.31;12760948;23;20069;-78
2021/12/09 13:24:27;;;;;;;25.10;12.77;;;;;;;2.36;100.00;97434.41;12727989;23;20030;-77
2021/12/09 13:29:42;;;;;;;21.00;11.85;;;;;;;2.50;100.00;97431.81;12725988;23;20013;-78
2021/12/09 13:35:02;;;;;;;21.98;12.45;;;;;;;2.47;100.00;97429.72;12700249;23;20041;-79
2021/12/09 13:50:54;;;;;;;19.83;11.60;;;;;;;2.35;100.00;97424.88;12742056;23;20032;-78
2021/12/09 13:55:55;;;;;;;19.70;10.77;;;;;;;2.27;100.00;97433.50;12717238;23;20021;-78
2021/12/09 14:00:57;;;;;;;19.63;10.65;;;;;;;2.32;100.00;97438.72;12720749;23;20014;-77
2021/12/09 14:06:01;;;;;;;22.52;11.63;;;;;;;2.31;100.00;97439.00;12736720;23;20097;-78
2021/12/09 14:11:11;;;;;;;18.98;9.80;;;;;;;2.31;100.00;97445.09;12727502;23;20345;-78
2021/12/09 14:16:39;;;;;;;16.67;9.75;;;;;;;2.26;100.00;97448.59;12728277;23;20101;-77
2021/12/09 14:21:38;;;;;;;16.58;10.52;;;;;;;2.33;100.00;97450.09;12698013;23;20022;-77
2021/12/09 14:26:40;;;;;;;16.17;9.50;;;;;;;2.28;100.00;97454.38;12727768;23;20040;-76
2021/12/09 14:31:47;;;;;;;21.65;10.52;;;;;;;2.24;100.00;97453.38;12725904;23;20025;-78
2021/12/09 14:36:50;;;;;;;19.85;10.88;;;;;;;2.20;100.00;97460.34;12722702;23;20022;-78
2021/12/09 14:42:18;;;;;;;17.03;10.33;;;;;;;2.19;100.00;97456.09;12682775;23;20509;-78
2021/12/09 14:47:19;;;;;;;18.52;10.68;;;;;;;2.22;100.00;97462.69;12724721;23;20106;-78
2021/12/09 14:52:46;;;;;;;22.88;11.55;;;;;;;2.27;100.00;97473.97;12747367;23;20076;-78
2021/12/09 14:58:08;;;;;;;19.38;12.25;;;;;;;2.11;100.00;97485.91;12732046;23;20568;-80
2021/12/09 15:03:13;;;;;;;22.60;11.60;;;;;;;2.14;100.00;97487.97;12730302;23;20029;-79
2021/12/09 15:08:20;;;;;;;23.40;11.48;;;;;;;2.17;100.00;97494.53;12714012;23;20027;-79
2021/12/09 15:13:24;;;;;;;20.70;12.10;;;;;;;2.05;100.00;97502.13;12678327;23;20085;-79
2021/12/09 15:18:28;;;;;;;20.17;11.43;;;;;;;1.94;100.00;97510.22;12715909;23;20025;-79
2021/12/09 15:28:41;;;;;;;24.55;10.35;;;;;;;1.82;100.00;97517.75;12732365;23;20065;-79
2021/12/09 15:33:52;;;;;;;20.58;10.35;;;;;;;1.90;100.00;97521.63;12707492;23;20487;-82
2021/12/09 15:39:16;;;;;;;16.83;9.80;;;;;;;1.82;100.00;97522.25;12701912;23;20239;-78
2021/12/09 15:44:23;;;;;;;19.65;10.13;;;;;;;1.84;100.00;97544.75;12703526;23;20020;-81
2021/12/09 15:49:28;;;;;;;18.33;9.52;;;;;;;1.71;100.00;97543.56;12677418;23;20112;-78
2021/12/09 15:54:43;;;;;;;15.25;8.52;;;;;;;1.57;100.00;97555.13;12711649;23;20028;-78
2021/12/09 15:59:46;;;;;;;25.33;10.88;;;;;;;1.75;100.00;97554.38;12691132;23;20095;-78
2021/12/09 16:04:49;;;;;;;19.13;9.30;;;;;;;1.60;100.00;97550.06;12705967;23;20064;-78
2021/12/09 16:09:52;;;;;;;21.92;10.13;;;;;;;1.62;100.00;97555.06;12736868;23;20017;-78
2021/12/09 16:14:57;;;;;;;19.67;10.15;;;;;;;1.63;100.00;97548.69;12682624;23;20057;-78
2021/12/09 16:20:04;;;;;;;19.00;9.88;;;;;;;1.52;100.00;97549.88;12699531;23;20023;-79
2021/12/09 16:25:15;;;;;;;21.65;10.40;;;;;;;1.55;100.00;97549.31;12689819;23;20136;-79
2021/12/09 16:30:28;;;;;;;19.10;10.18;;;;;;;1.66;100.00;97545.50;12718373;23;20051;-78
2021/12/09 16:35:33;;;;;;;19.23;8.97;;;;;;;1.53;100.00;97540.88;12694798;23;20047;-77
2021/12/09 16:40:39;;;;;;;17.35;9.57;;;;;;;1.53;100.00;97541.66;12691164;23;20475;-80
2021/12/09 16:45:40;;;;;;;15.30;7.85;;;;;;;1.53;100.00;97540.88;12721773;23;20017;-79
2021/12/09 16:50:44;;;;;;;21.92;10.23;;;;;;;1.53;100.00;97538.22;12731826;23;20049;-78
2021/12/09 16:55:54;;;;;;;17.65;9.38;;;;;;;1.46;100.00;97532.50;12656759;23;20048;-79
2021/12/09 17:00:56;;;;;;;20.38;10.30;;;;;;;1.51;100.00;97527.16;12708033;23;20117;-79
2021/12/09 17:05:58;;;;;;;17.80;9.32;;;;;;;1.45;100.00;97525.63;12707807;23;20023;-78
2021/12/09 17:10:59;;;;;;;19.00;10.55;;;;;;;1.40;100.00;97531.78;12708706;23;20024;-79
2021/12/09 17:16:00;;;;;;;20.10;10.52;;;;;;;1.36;100.00;97530.75;12754445;23;20037;-78
2021/12/09 17:21:04;;;;;;;19.38;9.55;;;;;;;1.43;100.00;97534.63;12758340;23;20025;-78
2021/12/09 17:26:06;;;;;;;18.15;10.10;;;;;;;1.47;100.00;97526.94;12725447;23;20021;-82
2021/12/09 17:31:11;;;;;;;16.95;9.48;;;;;;;1.41;100.00;97533.34;12755992;23;20081;-81
2021/12/09 17:36:20;;;;;;;18.40;9.13;;;;;;;1.38;100.00;97521.47;12778093;23;20050;-78
2021/12/09 17:41:21;;;;;;;17.88;9.07;;;;;;;1.34;100.00;97538.97;12733829;23;20006;-79
2021/12/09 17:46:21;;;;;;;16.67;9.52;;;;;;;1.29;100.00;97546.97;12779498;23;20018;-78
2021/12/09 17:51:23;;;;;;;18.27;8.85;;;;;;;1.10;100.00;97540.81;12694192;23;20136;-79
2021/12/09 17:56:25;;;;;;;19.70;10.15;;;;;;;1.08;100.00;97545.56;12698387;23;20450;-81
2021/12/09 18:01:27;;;;;;;23.58;10.40;;;;;;;0.97;100.00;97544.88;12716846;23;20022;-80
2021/12/09 18:06:28;;;;;;;19.85;9.95;;;;;;;0.95;100.00;97549.66;12715099;23;20028;-79
2021/12/09 18:11:34;;;;;;;19.95;10.80;;;;;;;0.83;100.00;97550.03;12700701;23;20053;-80
2021/12/09 18:16:41;;;;;;;24.15;11.38;;;;;;;0.88;100.00;97557.13;12721793;23;20029;-80
2021/12/09 18:21:42;;;;;;;22.33;11.88;;;;;;;0.78;100.00;97547.44;12698049;23;20059;-80
2021/12/09 18:26:48;;;;;;;22.58;11.43;;;;;;;0.76;100.00;97540.84;12676759;23;20176;-79
2021/12/09 18:31:52;;;;;;;20.90;11.75;;;;;;;0.69;100.00;97545.66;12722303;23;20021;-80
2021/12/09 18:36:55;;;;;;;19.85;10.68;;;;;;;0.65;100.00;97548.06;12757275;23;20010;-81
2021/12/09 18:41:56;;;;;;;20.00;10.03;;;;;;;0.45;100.00;97535.78;12761559;23;20005;-81
2021/12/09 18:46:57;;;;;;;18.20;9.80;;;;;;;0.32;100.00;97551.47;12708939;23;20292;-78
2021/12/09 18:51:58;;;;;;;19.20;10.13;;;;;;;0.18;100.00;97544.19;12721426;23;20023;-83
2021/12/09 18:56:59;;;;;;;18.58;10.68;;;;;;;0.10;100.00;97536.84;12728450;23;20021;-78
2021/12/09 19:02:00;;;;;;;23.23;11.88;;;;;;;0.04;100.00;97537.91;12728288;22;20052;-78
2021/12/09 19:07:03;;;;;;;20.73;10.75;;;;;;;0.10;100.00;97549.25;12772010;23;20071;-79
2021/12/09 19:12:09;;;;;;;27.13;13.65;;;;;;;0.16;100.00;97542.84;12803135;23;20369;-83
2021/12/09 19:17:15;;;;;;;22.25;13.48;;;;;;;0.12;100.00;97545.25;12804039;23;20017;-80
2021/12/09 19:22:21;;;;;;;24.77;12.88;;;;;;;0.14;100.00;97543.13;12773835;23;20017;-79
2021/12/09 19:27:22;;;;;;;21.27;10.68;;;;;;;0.23;100.00;97544.13;12777859;23;20017;-81
2021/12/09 19:32:24;;;;;;;17.95;9.73;;;;;;;0.40;100.00;97537.69;12814410;23;20017;-83
2021/12/09 19:37:25;;;;;;;20.17;9.65;;;;;;;0.39;100.00;97536.91;12801120;23;20016;-80
2021/12/09 19:42:30;;;;;;;25.55;9.30;;;;;;;0.43;100.00;97526.56;12796053;23;20321;-79
2021/12/09 19:47:32;;;;;;;15.75;9.13;;;;;;;0.44;100.00;97522.88;12810574;23;20453;-80
2021/12/09 19:52:39;;;;;;;14.55;8.90;;;;;;;0.50;100.00;97511.22;12834519;23;20048;-82
2021/12/09 19:57:45;;;;;;;17.85;9.80;;;;;;;0.45;100.00;97498.84;12818821;23;20032;-80
2021/12/09 20:02:46;;;;;;;24.05;11.82;;;;;;;0.46;100.00;97504.94;12841757;23;20515;-80
2021/12/09 20:07:47;;;;;;;26.98;13.30;;;;;;;0.47;100.00;97509.16;12856887;23;20008;-79
2021/12/09 20:12:48;;;;;;;24.20;11.90;;;;;;;0.54;100.00;97505.09;12874210;23;20302;-79
2021/12/09 20:17:52;;;;;;;23.55;11.73;;;;;;;0.48;100.00;97502.78;12865763;23;20071;-80
2021/12/09 20:22:55;;;;;;;22.13;12.40;;;;;;;0.42;100.00;97501.25;12845652;23;20051;-77
2021/12/09 20:27:57;;;;;;;20.60;11.95;;;;;;;0.43;100.00;97498.31;12876119;23;20021;-77
2021/12/09 20:33:00;;;;;;;21.02;12.30;;;;;;;0.50;100.00;97493.53;12874594;23;20023;-81
2021/12/09 20:38:01;;;;;;;19.83;12.63;;;;;;;0.50;100.00;97490.09;12898097;23;20023;-78
2021/12/09 20:43:02;;;;;;;21.38;11.05;;;;;;;0.52;100.00;97485.31;12876226;23;20484;-78
2021/12/09 20:48:03;;;;;;;20.58;11.43;;;;;;;0.51;100.00;97476.63;12839727;23;20024;-83
2021/12/09 20:53:06;;;;;;;20.38;10.65;;;;;;;0.55;100.00;97475.00;12863869;23;20071;-81
2021/12/09 20:58:08;;;;;;;17.67;10.55;;;;;;;0.48;100.00;97473.75;12861544;23;20028;-81
2021/12/09 21:03:09;;;;;;;18.02;10.10;;;;;;;0.54;100.00;97460.22;12869116;23;20019;-82
2021/12/09 21:08:10;;;;;;;17.15;9.85;;;;;;;0.54;100.00;97462.06;12877652;23;20025;-79
2021/12/09 21:13:15;;;;;;;17.73;9.70;;;;;;;0.46;100.00;97455.56;12868805;23;20718;-80
2021/12/09 21:18:20;;;;;;;20.98;10.52;;;;;;;0.54;100.00;97459.44;12868130;23;20020;-79
2021/12/09 21:23:21;;;;;;;15.40;9.68;;;;;;;0.53;100.00;97449.94;12873543;23;20016;-79
2021/12/09 21:28:22;;;;;;;18.17;10.00;;;;;;;0.64;100.00;97443.53;12872964;23;20813;-78
2021/12/09 21:33:30;;;;;;;17.80;10.20;;;;;;;0.56;100.00;97431.72;12877392;23;20027;-80
2021/12/09 21:38:32;;;;;;;18.52;9.35;;;;;;;0.60;100.00;97442.47;12851914;23;20028;-80
2021/12/09 21:43:33;;;;;;;16.25;10.45;;;;;;;0.60;100.00;97436.41;12869023;23;20475;-79
2021/12/09 21:48:35;;;;;;;16.35;10.65;;;;;;;0.60;100.00;97428.50;12844501;23;20060;-80
2021/12/09 21:53:39;;;;;;;22.95;11.52;;;;;;;0.55;100.00;97429.34;12873955;23;20047;-80
2021/12/09 21:58:39;;;;;;;22.88;10.60;;;;;;;0.53;100.00;97428.81;12906473;23;20011;-79
2021/12/09 22:03:40;;;;;;;21.55;9.93;;;;;;;0.64;100.00;97425.03;12904810;23;20013;-80
2021/12/09 22:08:41;;;;;;;21.40;11.25;;;;;;;0.65;100.00;97418.69;12847997;23;20021;-76
2021/12/09 22:13:41;;;;;;;23.02;11.25;;;;;;;0.58;100.00;97423.50;12838782;23;20095;-78
2021/12/09 22:18:48;;;;;;;23.63;11.57;;;;;;;0.53;100.00;97415.63;12862711;23;20023;-78
2021/12/09 22:23:50;;;;;;;18.98;11.48;;;;;;;0.54;100.00;97401.34;12876189;23;20028;-79
2021/12/09 22:28:53;;;;;;;25.10;12.25;;;;;;;0.48;100.00;97390.06;12862591;23;20027;-79
2021/12/09 22:33:54;;;;;;;22.05;11.52;;;;;;;0.41;100.00;97386.19;12836866;23;20028;-80
2021/12/09 22:38:54;;;;;;;22.70;12.05;;;;;;;0.40;100.00;97382.75;12807719;23;20060;-79
2021/12/09 22:43:55;;;;;;;27.30;12.13;;;;;;;0.41;100.00;97373.75;12858282;23;20035;-80
2021/12/09 22:48:57;;;;;;;31.10;13.98;;;;;;;0.42;100.00;97366.63;12862634;23;20067;-78
2021/12/09 22:54:04;;;;;;;24.60;12.70;;;;;;;0.46;100.00;97354.47;12858724;23;20047;-78
2021/12/09 22:59:07;;;;;;;27.80;13.82;;;;;;;0.46;100.00;97347.34;12838265;23;20116;-79
2021/12/09 23:04:13;;;;;;;27.20;12.68;;;;;;;0.45;100.00;97351.00;12839256;23;20329;-79
2021/12/09 23:09:15;;;;;;;28.45;12.35;;;;;;;0.43;100.00;97333.88;12834714;23;20283;-79
2021/12/09 23:14:41;;;;;;;30.77;12.98;;;;;;;0.45;100.00;97329.13;12835451;23;20290;-78
2021/12/09 23:19:43;;;;;;;23.55;12.10;;;;;;;0.44;100.00;97319.63;12861539;23;20083;-79
2021/12/09 23:24:44;;;;;;;23.80;11.70;;;;;;;0.48;100.00;97318.78;12865935;23;20032;-78
2021/12/09 23:29:47;;;;;;;26.30;12.13;;;;;;;0.42;100.00;97311.19;12838785;23;20009;-79
2021/12/09 23:34:48;;;;;;;23.55;13.13;;;;;;;0.48;100.00;97304.81;12836056;23;20138;-78
2021/12/09 23:39:49;;;;;;;20.00;11.20;;;;;;;0.50;100.00;97292.91;12849032;23;20032;-78
2021/12/09 23:44:50;;;;;;;24.23;11.88;;;;;;;0.56;100.00;97280.44;12830698;23;20075;-79
2021/12/09 23:49:50;;;;;;;20.45;10.25;;;;;;;0.55;100.00;97278.88;12857913;23;20159;-78